Government of Jersey

Home Log in

METAR EGJJ 281320Z 24017KT 1500 0900W R26/1700U PRFG -DZRA BKN000 OVC001 11/11 Q1008

METAR EGJB 281320Z 24017KT 1400 R27/1000 -DZ BR VCFG SCT000 BKN001 11/11 Q1007

METAR EGJA 281320Z 24015KT 2000 BR BKN001 11/11 Q1007

METAR LFRD 281330Z AUTO 23012KT 9999 FEW020 BKN028 BKN033 14/12 Q1010 TEMPO 3000 DZ BKN006 OVC013

METAR LFRC 281330Z AUTO 26017KT 9999 BKN009 BKN015 OVC024 12/11 Q1007 TEMPO 25020G30KT 2000 DZ OVC003